Latest Weather Observations for Kempsey Airport
Issued at 7:33 pm EST Wednesday 2 September 2026 (issued every 10 minutes, with the page automatically refreshed every 10 minutes)
| Station Details | ID: 059007 | Name: KEMPSEY AIRPORT AWS | Lat: -31.07 | Lon: 152.77 | Height: 13.0 m |
| Date/Time EST |
Temp °C |
App Temp °C |
Dew Point °C |
Rel Hum % |
Delta-T °C |
Wind | Press QNH hPa |
Press MSL hPa |
Rain since 9am mm |
|||||
|---|---|---|---|---|---|---|---|---|---|---|---|---|---|---|
| Dir | Spd km/h |
Gust km/h |
Spd kts |
Gust kts |
||||||||||
| 02/07:30pm | 16.3 | 16.3 | 12.5 | 78 | 2.1 | WSW | 4 | 7 | 2 | 4 | 1016.7 | 1016.7 | 0.0 | |
| 02/07:00pm | 17.1 | 17.2 | 12.6 | 75 | 2.5 | SSE | 4 | 6 | 2 | 3 | 1016.5 | 1016.5 | 0.0 | |
| 02/06:30pm | 18.7 | 18.4 | 12.7 | 68 | 3.4 | ESE | 6 | 7 | 3 | 4 | 1016.3 | 1016.3 | 0.0 | |
| 02/06:00pm | 21.2 | 20.4 | 11.8 | 55 | 5.2 | NNE | 7 | 9 | 4 | 5 | 1016.0 | 1016.0 | 0.0 | |
| 02/05:30pm | 22.4 | 21.3 | 12.1 | 52 | 5.8 | NNE | 9 | 13 | 5 | 7 | 1015.8 | 1015.8 | 0.0 | |
| 02/05:00pm | 24.2 | 22.6 | 11.5 | 45 | 7.2 | NNE | 11 | 15 | 6 | 8 | 1015.5 | 1015.5 | 0.0 | |
| 02/04:30pm | 25.3 | 23.1 | 10.7 | 40 | 8.2 | NNE | 13 | 15 | 7 | 8 | 1015.3 | 1015.3 | 0.0 | |
| 02/04:00pm | 26.5 | 24.5 | 10.2 | 36 | 9.1 | N | 11 | 17 | 6 | 9 | 1015.2 | 1015.2 | 0.0 | |
| 02/03:30pm | 26.3 | 23.5 | 10.0 | 36 | 9.0 | NNW | 15 | 20 | 8 | 11 | 1015.3 | 1015.3 | 0.0 | |
| 02/03:00pm | 27.3 | 25.3 | 10.1 | 34 | 9.6 | NNW | 11 | 17 | 6 | 9 | 1015.4 | 1015.4 | 0.0 | |
| 02/02:30pm | 26.6 | 23.3 | 9.5 | 34 | 9.4 | NW | 17 | 26 | 9 | 14 | 1015.8 | 1015.8 | 0.0 | |
| 02/02:00pm | 27.9 | 24.2 | 10.1 | 33 | 10.0 | NW | 20 | 28 | 11 | 15 | 1015.9 | 1015.9 | 0.0 | |
| 02/01:30pm | 28.2 | 24.9 | 10.9 | 34 | 9.8 | NW | 19 | 30 | 10 | 16 | 1016.0 | 1016.0 | 0.0 | |
| 02/01:00pm | 27.5 | 24.5 | 9.3 | 32 | 10.0 | NW | 15 | 32 | 8 | 17 | 1016.7 | 1016.7 | 0.0 | |
| 02/12:30pm | 26.6 | 22.3 | 9.5 | 34 | 9.4 | NW | 22 | 30 | 12 | 16 | 1017.3 | 1017.3 | 0.0 | |
| 02/12:00pm | 25.0 | 21.1 | 9.3 | 37 | 8.5 | NW | 20 | 28 | 11 | 15 | 1018.1 | 1018.1 | 0.0 | |
| 02/11:30am | 24.3 | 20.4 | 9.5 | 39 | 8.1 | NW | 20 | 28 | 11 | 15 | 1018.6 | 1018.6 | 0.0 | |
| 02/11:00am | 24.0 | 20.5 | 8.8 | 38 | 8.1 | NW | 17 | 30 | 9 | 16 | 1019.2 | 1019.2 | 0.0 | |
| 02/10:30am | 24.5 | 20.5 | 8.9 | 37 | 8.4 | NW | 20 | 30 | 11 | 16 | 1019.7 | 1019.7 | 0.0 | |
| 02/10:00am | 23.1 | 19.5 | 10.5 | 45 | 6.9 | NW | 20 | 30 | 11 | 16 | 1020.0 | 1020.0 | 0.0 | |
| 02/09:30am | 22.0 | 19.1 | 9.5 | 45 | 6.7 | NW | 15 | 20 | 8 | 11 | 1020.1 | 1020.1 | 0.0 | |
| 02/09:00am | 20.9 | 19.0 | 11.8 | 56 | 5.1 | NW | 13 | 20 | 7 | 11 | 1020.4 | 1020.4 | 0.0 | |
| 02/08:30am | 17.1 | 16.3 | 11.8 | 71 | 2.9 | NW | 7 | 11 | 4 | 6 | 1020.8 | 1020.8 | 0.0 | |
| 02/08:00am | 14.1 | 11.9 | 10.7 | 80 | 1.8 | NW | 13 | 19 | 7 | 10 | 1021.1 | 1021.1 | 0.0 | |
| 02/07:30am | 12.1 | 8.8 | 9.5 | 84 | 1.3 | WNW | 17 | 22 | 9 | 12 | 1021.0 | 1021.0 | 0.0 | |
| 02/07:00am | 10.6 | 8.9 | 9.8 | 95 | 0.4 | WNW | 9 | 13 | 5 | 7 | 1020.7 | 1020.7 | 0.0 | |
| 02/06:30am | 8.7 | 7.0 | 8.3 | 97 | 0.2 | WSW | 7 | 9 | 4 | 5 | 1020.6 | 1020.6 | 0.0 | |
| 02/06:00am | 8.9 | 8.2 | 8.6 | 98 | 0.1 | WNW | 2 | 7 | 1 | 4 | 1020.5 | 1020.5 | 0.0 | |
| 02/05:30am | 7.9 | 6.2 | 7.6 | 98 | 0.1 | W | 6 | 9 | 3 | 5 | 1020.5 | 1020.5 | 0.0 | |
| 02/05:00am | 8.2 | 7.0 | 7.9 | 98 | 0.1 | SW | 4 | 9 | 2 | 5 | 1020.3 | 1020.3 | 0.0 | |
| 02/04:30am | 8.3 | 5.8 | 8.0 | 98 | 0.1 | WNW | 11 | 15 | 6 | 8 | 1020.2 | 1020.2 | 0.0 | |
| 02/04:00am | 6.7 | 5.5 | 6.4 | 98 | 0.1 | WSW | 2 | 6 | 1 | 3 | 1020.2 | 1020.2 | 0.0 | |
| 02/03:30am | 7.5 | 6.9 | 7.2 | 98 | 0.1 | CALM | 0 | 0 | 0 | 0 | 1020.4 | 1020.4 | 0.0 | |
| 02/03:00am | 7.6 | 7.0 | 7.3 | 98 | 0.1 | CALM | 0 | 0 | 0 | 0 | 1020.5 | 1020.5 | 0.0 | |
| 02/02:30am | 7.8 | 6.8 | 7.5 | 98 | 0.1 | W | 2 | 6 | 1 | 3 | 1020.8 | 1020.8 | 0.0 | |
| 02/02:00am | 7.5 | 5.7 | 7.2 | 98 | 0.1 | SSE | 6 | 9 | 3 | 5 | 1021.1 | 1021.1 | 0.0 | |
| 02/01:30am | 9.2 | 7.6 | 8.9 | 98 | 0.1 | N | 7 | 9 | 4 | 5 | 1021.3 | 1021.3 | 0.0 | |
| 02/01:00am | 9.5 | 9.3 | 9.2 | 98 | 0.1 | CALM | 0 | 0 | 0 | 0 | 1021.7 | 1021.7 | 0.0 | |
| 02/12:30am | 10.0 | 8.6 | 9.7 | 98 | 0.2 | SW | 7 | 9 | 4 | 5 | 1022.3 | 1022.3 | 0.0 | |
| 02/12:00am | 9.5 | 8.0 | 9.0 | 97 | 0.2 | SW | 7 | 9 | 4 | 5 | 1022.1 | 1022.1 | 0.0 | |
| Date/Time EST |
Temp °C |
App Temp °C |
Dew Point °C |
Rel Hum % |
Delta-T °C |
Wind | Press QNH hPa |
Press MSL hPa |
Rain since 9am mm |
|||||
|---|---|---|---|---|---|---|---|---|---|---|---|---|---|---|
| Dir | Spd km/h |
Gust km/h |
Spd kts |
Gust kts |
||||||||||
| 01/11:30pm | 10.7 | 10.8 | 10.2 | 97 | 0.3 | CALM | 0 | 0 | 0 | 0 | 1022.1 | 1022.1 | 0.0 | |
| 01/11:00pm | 11.6 | 11.6 | 11.3 | 98 | 0.2 | WNW | 2 | 6 | 1 | 3 | 1022.4 | 1022.4 | 0.0 | |
| 01/10:30pm | 11.3 | 10.4 | 10.8 | 97 | 0.3 | NW | 6 | 7 | 3 | 4 | 1022.7 | 1022.7 | 0.0 | |
| 01/10:00pm | 11.3 | 10.4 | 10.7 | 96 | 0.3 | W | 6 | 7 | 3 | 4 | 1022.9 | 1022.9 | 0.0 | |
| 01/09:30pm | 12.1 | 11.8 | 11.5 | 96 | 0.3 | W | 4 | 7 | 2 | 4 | 1023.1 | 1023.1 | 0.0 | |
| 01/09:00pm | 12.8 | 11.8 | 12.2 | 96 | 0.3 | WSW | 9 | 13 | 5 | 7 | 1023.0 | 1023.0 | 0.0 | |
| 01/08:30pm | 13.2 | 12.8 | 12.4 | 95 | 0.4 | WSW | 6 | 9 | 3 | 5 | 1022.9 | 1022.9 | 0.0 | |
| 01/08:00pm | 14.1 | 15.1 | 13.3 | 95 | 0.4 | CALM | 0 | 0 | 0 | 0 | 1022.9 | 1022.9 | 0.0 | |
| 01/07:30pm | 14.6 | 15.6 | 13.3 | 92 | 0.7 | CALM | 0 | 0 | 0 | 0 | 1022.8 | 1022.8 | 0.0 | |
| 01/07:00pm | 15.4 | 16.6 | 13.9 | 91 | 0.8 | CALM | 0 | 0 | 0 | 0 | 1022.7 | 1022.7 | 0.0 | |
| 01/06:30pm | 15.2 | 14.8 | 12.9 | 86 | 1.3 | SSE | 7 | 7 | 4 | 4 | 1022.4 | 1022.4 | 0.0 | |
| 01/06:00pm | 17.1 | 16.8 | 12.8 | 76 | 2.4 | E | 6 | 7 | 3 | 4 | 1022.0 | 1022.0 | 0.0 | |
| 01/05:30pm | 19.5 | 18.3 | 14.1 | 71 | 3.1 | ENE | 13 | 19 | 7 | 10 | 1021.6 | 1021.6 | 0.0 | |
| 01/05:00pm | 20.7 | 18.8 | 14.1 | 66 | 3.8 | NE | 17 | 22 | 9 | 12 | 1021.4 | 1021.4 | 0.0 | |
| 01/04:30pm | 21.9 | 19.9 | 14.0 | 61 | 4.6 | NE | 17 | 24 | 9 | 13 | 1021.5 | 1021.5 | 0.0 | |
| 01/04:00pm | 22.7 | 20.1 | 13.2 | 55 | 5.5 | ENE | 19 | 26 | 10 | 14 | 1021.4 | 1021.4 | 0.0 | |
| 01/03:30pm | 22.8 | 19.8 | 13.8 | 57 | 5.2 | NE | 22 | 32 | 12 | 17 | 1021.4 | 1021.4 | 0.0 | |
| 01/03:00pm | 23.6 | 20.8 | 14.3 | 56 | 5.5 | NE | 22 | 30 | 12 | 16 | 1021.5 | 1021.5 | 0.0 | |
| 01/02:30pm | 23.7 | 20.7 | 13.6 | 53 | 5.9 | NE | 22 | 35 | 12 | 19 | 1021.8 | 1021.8 | 0.0 | |
| 01/02:00pm | 24.0 | 21.2 | 12.6 | 49 | 6.5 | NE | 19 | 26 | 10 | 14 | 1022.2 | 1022.2 | 0.0 | |
| 01/01:30pm | 24.3 | 20.9 | 10.6 | 42 | 7.6 | NE | 19 | 30 | 10 | 16 | 1022.7 | 1022.7 | 0.0 | |
| 01/01:00pm | 24.2 | 21.9 | 10.5 | 42 | 7.6 | NNE | 13 | 20 | 7 | 11 | 1023.5 | 1023.5 | 0.0 | |
| 01/12:30pm | 23.5 | 20.5 | 9.1 | 40 | 7.8 | NNE | 15 | 24 | 8 | 13 | 1024.3 | 1024.3 | 0.0 | |
| 01/12:00pm | 23.0 | 19.8 | 9.8 | 43 | 7.1 | NNE | 17 | 24 | 9 | 13 | 1025.3 | 1025.3 | 0.0 | |
| 01/11:30am | 22.9 | 19.8 | 10.3 | 45 | 6.9 | N | 17 | 30 | 9 | 16 | 1026.1 | 1026.1 | 0.0 | |
| 01/11:00am | 21.5 | 19.0 | 10.9 | 51 | 5.8 | N | 15 | 22 | 8 | 12 | 1027.0 | 1027.0 | 0.0 | |
| 01/10:30am | 21.1 | 18.6 | 10.9 | 52 | 5.6 | N | 15 | 20 | 8 | 11 | 1027.6 | 1027.6 | 0.0 | |
| 01/10:00am | 20.0 | 18.1 | 10.4 | 54 | 5.2 | N | 11 | 17 | 6 | 9 | 1028.1 | 1028.1 | 0.0 | |
| 01/09:30am | 18.2 | 16.6 | 11.5 | 65 | 3.7 | NNW | 11 | 17 | 6 | 9 | 1028.6 | 1028.6 | 0.0 | |
| 01/09:00am | 16.3 | 13.9 | 11.5 | 73 | 2.6 | WNW | 15 | 20 | 8 | 11 | 1028.9 | 1028.9 | 0.0 | |
| 01/08:30am | 14.7 | 12.8 | 11.8 | 83 | 1.6 | WNW | 13 | 15 | 7 | 8 | 1029.1 | 1029.1 | 0.0 | |
| 01/08:00am | 13.0 | 11.5 | 11.9 | 93 | 0.6 | NW | 11 | 13 | 6 | 7 | 1029.1 | 1029.1 | 0.0 | |
| 01/07:30am | 11.4 | 9.7 | 11.1 | 98 | 0.2 | WNW | 11 | 17 | 6 | 9 | 1028.9 | 1028.9 | 0.0 | |
| 01/07:00am | 10.3 | 9.2 | 10.1 | 99 | 0.1 | W | 6 | 9 | 3 | 5 | 1028.8 | 1028.8 | 0.0 | |
| 01/06:30am | 8.0 | 6.1 | 7.7 | 98 | 0.1 | WSW | 7 | 9 | 4 | 5 | 1028.6 | 1028.6 | 0.0 | |
| 01/06:00am | 9.0 | 8.0 | 8.7 | 98 | 0.1 | SW | 4 | 6 | 2 | 3 | 1028.4 | 1028.4 | 0.0 | |
| 01/05:30am | 8.6 | 6.9 | 8.3 | 98 | 0.1 | SSW | 7 | 7 | 4 | 4 | 1028.3 | 1028.3 | 0.0 | |
| 01/05:00am | 8.6 | 6.9 | 8.3 | 98 | 0.1 | SW | 7 | 9 | 4 | 5 | 1028.1 | 1028.1 | 0.0 | |
| 01/04:30am | 8.9 | 6.9 | 8.6 | 98 | 0.1 | SW | 9 | 11 | 5 | 6 | 1028.1 | 1028.1 | 0.0 | |
| 01/04:00am | 9.3 | 9.1 | 9.0 | 98 | 0.1 | CALM | 0 | 0 | 0 | 0 | 1028.0 | 1028.0 | 0.0 | |
| 01/03:30am | 9.2 | 7.8 | 8.9 | 98 | 0.1 | SW | 6 | 7 | 3 | 4 | 1028.0 | 1028.0 | 0.0 | |
| 01/03:00am | 9.1 | 7.5 | 8.8 | 98 | 0.1 | WSW | 7 | 9 | 4 | 5 | 1028.4 | 1028.4 | 0.0 | |
| 01/02:30am | 9.3 | 7.8 | 9.0 | 98 | 0.1 | WSW | 7 | 9 | 4 | 5 | 1028.8 | 1028.8 | 0.0 | |
| 01/02:00am | 9.6 | 8.3 | 9.3 | 98 | 0.1 | W | 6 | 9 | 3 | 5 | 1029.1 | 1029.1 | 0.0 | |
| 01/01:30am | 8.9 | 7.2 | 8.5 | 97 | 0.2 | W | 7 | 7 | 4 | 4 | 1029.4 | 1029.4 | 0.0 | |
| 01/01:00am | 9.5 | 8.1 | 9.0 | 97 | 0.2 | W | 6 | 7 | 3 | 4 | 1029.7 | 1029.7 | 0.0 | |
| 01/12:30am | 9.4 | 9.2 | 8.9 | 97 | 0.2 | CALM | 0 | 0 | 0 | 0 | 1029.9 | 1029.9 | 0.0 | |
| 01/12:00am | 9.5 | 8.1 | 8.9 | 96 | 0.3 | W | 6 | 7 | 3 | 4 | 1029.9 | 1029.9 | 0.0 | |
| Date/Time EST |
Temp °C |
App Temp °C |
Dew Point °C |
Rel Hum % |
Delta-T °C |
Wind | Press QNH hPa |
Press MSL hPa |
Rain since 9am mm |
|||||
|---|---|---|---|---|---|---|---|---|---|---|---|---|---|---|
| Dir | Spd km/h |
Gust km/h |
Spd kts |
Gust kts |
||||||||||
| 31/11:30pm | 10.4 | 9.6 | 9.8 | 96 | 0.3 | WNW | 4 | 7 | 2 | 4 | 1030.0 | 1030.0 | 0.0 | |
| 31/11:00pm | 10.6 | 9.5 | 9.8 | 95 | 0.4 | WNW | 6 | 7 | 3 | 4 | 1030.2 | 1030.2 | 0.0 | |
| 31/10:30pm | 11.5 | 11.8 | 10.9 | 96 | 0.3 | CALM | 0 | 0 | 0 | 0 | 1030.2 | 1030.2 | 0.0 | |
| 31/10:00pm | 11.4 | 11.7 | 10.8 | 96 | 0.3 | CALM | 0 | 0 | 0 | 0 | 1030.4 | 1030.4 | 0.0 | |
| 31/09:30pm | 11.2 | 10.6 | 10.3 | 94 | 0.5 | W | 4 | 6 | 2 | 3 | 1030.6 | 1030.6 | 0.0 | |
| 31/09:00pm | 11.3 | 9.8 | 10.4 | 94 | 0.5 | WSW | 9 | 9 | 5 | 5 | 1030.6 | 1030.6 | 0.0 | |
| 31/08:30pm | 11.8 | 11.7 | 10.9 | 94 | 0.5 | W | 2 | 9 | 1 | 5 | 1030.5 | 1030.5 | 0.0 | |
| 31/08:00pm | 12.5 | 11.9 | 11.6 | 94 | 0.5 | WNW | 6 | 6 | 3 | 3 | 1030.4 | 1030.4 | 0.0 | |
| 31/07:30pm | 12.0 | 11.4 | 10.4 | 90 | 0.8 | W | 4 | 9 | 2 | 5 | 1030.3 | 1030.3 | 0.0 | |
| 31/07:00pm | 13.6 | 14.2 | 11.8 | 89 | 1.0 | CALM | 0 | 0 | 0 | 0 | 1030.3 | 1030.3 | 0.0 | |
| 31/06:30pm | 14.9 | 15.6 | 12.2 | 84 | 1.5 | CALM | 0 | 0 | 0 | 0 | 1030.1 | 1030.1 | 0.0 | |
| 31/06:00pm | 16.0 | 15.4 | 11.6 | 75 | 2.4 | ESE | 6 | 7 | 3 | 4 | 1029.7 | 1029.7 | 0.0 | |
| 31/05:30pm | 17.7 | 16.7 | 12.2 | 70 | 3.0 | E | 9 | 13 | 5 | 7 | 1029.6 | 1029.6 | 0.0 | |
| 31/05:00pm | 19.0 | 16.9 | 12.3 | 65 | 3.7 | E | 15 | 19 | 8 | 10 | 1029.2 | 1029.2 | 0.0 | |
| 31/04:30pm | 19.9 | 17.7 | 12.2 | 61 | 4.3 | E | 15 | 20 | 8 | 11 | 1028.8 | 1028.8 | 0.0 | |
| 31/04:00pm | 20.6 | 18.0 | 12.1 | 58 | 4.7 | E | 17 | 20 | 9 | 11 | 1028.6 | 1028.6 | 0.0 | |
| 31/03:30pm | 21.4 | 19.2 | 12.0 | 55 | 5.3 | E | 15 | 20 | 8 | 11 | 1028.4 | 1028.4 | 0.0 | |
| 31/03:00pm | 21.4 | 18.7 | 11.7 | 54 | 5.4 | NE | 17 | 24 | 9 | 13 | 1028.4 | 1028.4 | 0.0 | |
| 31/02:30pm | 21.9 | 19.3 | 11.9 | 53 | 5.6 | ENE | 17 | 24 | 9 | 13 | 1028.4 | 1028.4 | 0.0 | |
| 31/02:00pm | 22.0 | 20.0 | 11.4 | 51 | 5.9 | ENE | 13 | 20 | 7 | 11 | 1028.6 | 1028.6 | 0.0 | |
| 31/01:30pm | 22.7 | 21.8 | 10.5 | 46 | 6.7 | NE | 6 | 24 | 3 | 13 | 1028.7 | 1028.7 | 0.0 | |
| 31/01:00pm | 20.8 | 18.3 | 9.7 | 49 | 5.9 | ESE | 13 | 20 | 7 | 11 | 1029.2 | 1029.2 | 0.0 | |
| 31/12:30pm | 21.3 | 19.6 | 11.1 | 52 | 5.6 | SE | 11 | 13 | 6 | 7 | 1029.7 | 1029.7 | 0.0 | |
| 31/12:00pm | 21.8 | 19.8 | 7.2 | 39 | 7.5 | E | 7 | 13 | 4 | 7 | 1029.9 | 1029.9 | 0.0 | |
| 31/11:30am | 21.2 | 19.7 | 10.4 | 50 | 5.9 | ENE | 9 | 15 | 5 | 8 | 1030.2 | 1030.2 | 0.0 | |
| 31/11:00am | 20.9 | 20.1 | 9.8 | 49 | 5.9 | NE | 4 | 9 | 2 | 5 | 1030.5 | 1030.5 | 0.0 | |
| 31/10:30am | 20.5 | 19.7 | 10.9 | 54 | 5.3 | NNW | 6 | 9 | 3 | 5 | 1030.8 | 1030.8 | 0.0 | |
| 31/10:00am | 18.9 | 18.2 | 11.5 | 62 | 4.0 | SW | 6 | 9 | 3 | 5 | 1031.0 | 1031.0 | 0.0 | |
| 31/09:30am | 17.6 | 16.3 | 11.2 | 66 | 3.5 | WNW | 9 | 13 | 5 | 7 | 1031.1 | 1031.1 | 0.0 | |
| 31/09:00am | 16.0 | 14.6 | 12.2 | 78 | 2.1 | WNW | 11 | 15 | 6 | 8 | 1031.2 | 1031.2 | 0.2 | |
| 31/08:30am | 13.9 | 12.3 | 11.4 | 85 | 1.3 | WNW | 11 | 17 | 6 | 9 | 1031.2 | 1031.2 | 0.2 | |
| 31/08:00am | 12.0 | 10.5 | 10.6 | 91 | 0.7 | W | 9 | 11 | 5 | 6 | 1031.2 | 1031.2 | 0.2 | |
| 31/07:30am | 9.9 | 8.0 | 9.1 | 95 | 0.4 | WNW | 9 | 17 | 5 | 9 | 1031.1 | 1031.1 | 0.2 | |
| 31/07:00am | 9.1 | 7.1 | 8.8 | 98 | 0.1 | WSW | 9 | 15 | 5 | 8 | 1030.9 | 1030.9 | 0.2 | |
| 31/06:30am | 7.0 | 4.9 | 6.7 | 98 | 0.1 | WSW | 7 | 11 | 4 | 6 | 1030.6 | 1030.6 | 0.2 | |
| 31/06:00am | 6.2 | 3.2 | 5.8 | 97 | 0.2 | WSW | 11 | 11 | 6 | 6 | 1030.2 | 1030.2 | 0.2 | |
| 31/05:30am | 6.5 | 3.9 | 6.1 | 97 | 0.2 | WSW | 9 | 9 | 5 | 5 | 1029.8 | 1029.8 | 0.2 | |
| 31/05:00am | 7.3 | 5.3 | 6.9 | 97 | 0.2 | WSW | 7 | 9 | 4 | 5 | 1029.6 | 1029.6 | 0.2 | |
| 31/04:30am | 7.8 | 5.5 | 7.4 | 97 | 0.2 | WSW | 9 | 11 | 5 | 6 | 1029.6 | 1029.6 | 0.2 | |
| 31/04:00am | 8.2 | 6.0 | 7.8 | 97 | 0.2 | WSW | 9 | 11 | 5 | 6 | 1029.4 | 1029.4 | 0.2 | |
| 31/03:30am | 7.8 | 5.4 | 7.2 | 96 | 0.3 | WSW | 9 | 11 | 5 | 6 | 1029.4 | 1029.4 | 0.0 | |
| 31/03:00am | 8.4 | 6.6 | 7.8 | 96 | 0.3 | WSW | 7 | 9 | 4 | 5 | 1029.5 | 1029.5 | 0.0 | |
| 31/02:30am | 8.7 | 6.9 | 8.1 | 96 | 0.3 | W | 7 | 11 | 4 | 6 | 1029.6 | 1029.6 | 0.0 | |
| 31/02:00am | 8.8 | 7.1 | 8.2 | 96 | 0.3 | WSW | 7 | 11 | 4 | 6 | 1029.8 | 1029.8 | 0.0 | |
| 31/01:30am | 8.8 | 7.1 | 8.2 | 96 | 0.3 | SW | 7 | 9 | 4 | 5 | 1029.9 | 1029.9 | 0.0 | |
| 31/01:00am | 9.6 | 7.7 | 9.0 | 96 | 0.3 | WSW | 9 | 11 | 5 | 6 | 1030.0 | 1030.0 | 0.0 | |
| 31/12:30am | 9.9 | 8.4 | 9.1 | 95 | 0.4 | WSW | 7 | 9 | 4 | 5 | 1030.2 | 1030.2 | 0.0 | |
| 31/12:00am | 10.2 | 8.4 | 9.4 | 95 | 0.4 | WSW | 9 | 11 | 5 | 6 | 1030.3 | 1030.3 | 0.0 | |
| Date/Time EST |
Temp °C |
App Temp °C |
Dew Point °C |
Rel Hum % |
Delta-T °C |
Wind | Press QNH hPa |
Press MSL hPa |
Rain since 9am mm |
||||
|---|---|---|---|---|---|---|---|---|---|---|---|---|---|
| Dir | Spd km/h |
Gust km/h |
Spd kts |
Gust kts |
|||||||||
| 30/11:30pm | 10.5 | 9.1 | 9.7 | 95 | 0.4 | W | 7 | 9 | 4 | 5 | 1030.3 | 1030.3 | 0.0 |
| 30/11:00pm | 10.4 | 9.0 | 9.5 | 94 | 0.4 | W | 7 | 9 | 4 | 5 | 1030.5 | 1030.5 | 0.0 |
| 30/10:30pm | 10.6 | 9.2 | 9.5 | 93 | 0.6 | W | 7 | 9 | 4 | 5 | 1030.5 | 1030.5 | 0.0 |
| 30/10:00pm | 11.2 | 9.6 | 10.1 | 93 | 0.6 | W | 9 | 11 | 5 | 6 | 1030.4 | 1030.4 | 0.0 |
| 30/09:30pm | 11.0 | 9.7 | 10.1 | 94 | 0.5 | W | 7 | 9 | 4 | 5 | 1030.4 | 1030.4 | 0.0 |
| 30/09:00pm | 10.7 | 9.4 | 9.8 | 94 | 0.5 | WSW | 7 | 9 | 4 | 5 | 1030.3 | 1030.3 | 0.0 |
| 30/08:30pm | 10.3 | 8.7 | 8.9 | 91 | 0.7 | WSW | 7 | 11 | 4 | 6 | 1030.2 | 1030.2 | 0.0 |
| 30/08:00pm | 11.4 | 10.4 | 10.3 | 93 | 0.6 | W | 6 | 7 | 3 | 4 | 1030.0 | 1030.0 | 0.0 |
Other formats
Comma delimited format used in spreadsheet applications
http://www.bom.gov.au/fwo/IDN60801/IDN60801.94785.axf
JavaScript Object Notation format (JSON) in row-major order
http://www.bom.gov.au/fwo/IDN60801/IDN60801.94785.json
Data quality
Most of these data are generated automatically and are frequently updated. Quality checks on data are not normally performed. It is possible for incorrect values to appear. Refer to information at About Latest Weather Observations and please check the disclaimer before using these data.
